Time;durP1;ratioP1;P1;durP2;ratioP2;P2;SDS_P1;SDS_P2;PMS_P1;PMS_P2;Temp;Humidity;BMP_temperature;BMP_pressure;BME280_temperature;BME280_humidity;BME280_pressure;Samples;Min_cycle;Max_cycle;Signal;HPM_P1;HPM_P2
2023/07/26 00:01:48;;;;;;;88.40;48.33;;;15.10;99.90;;;;;;6241189;23;20404;-72
2023/07/26 00:04:15;;;;;;;88.53;47.33;;;15.20;99.90;;;;;;6241797;23;20408;-72
2023/07/26 00:06:42;;;;;;;87.77;47.97;;;15.30;99.90;;;;;;6241284;23;20426;-72
2023/07/26 00:09:09;;;;;;;85.37;45.40;;;15.30;99.90;;;;;;6241828;23;20418;-72
2023/07/26 00:11:37;;;;;;;85.40;45.67;;;15.20;99.90;;;;;;6241661;23;20836;-72
2023/07/26 00:14:04;;;;;;;89.53;46.37;;;15.20;99.90;;;;;;6241909;23;20431;-72
2023/07/26 00:16:31;;;;;;;85.67;44.20;;;15.20;99.90;;;;;;6241807;23;20458;-72
2023/07/26 00:18:58;;;;;;;83.00;43.47;;;15.20;99.90;;;;;;6241943;23;20704;-72
2023/07/26 00:21:25;;;;;;;84.87;46.20;;;15.30;99.90;;;;;;6241470;23;20408;-71
2023/07/26 00:23:51;;;;;;;90.13;44.27;;;15.20;99.90;;;;;;6241614;23;20419;-71
2023/07/26 00:26:18;;;;;;;85.07;42.90;;;15.20;99.90;;;;;;6242095;23;20416;-71
2023/07/26 00:28:46;;;;;;;83.17;41.30;;;15.30;99.90;;;;;;6243470;23;20415;-71
2023/07/26 00:31:13;;;;;;;83.33;42.17;;;15.30;99.90;;;;;;6243519;23;20775;-71
2023/07/26 00:33:40;;;;;;;83.57;42.90;;;15.30;99.90;;;;;;6243068;22;20437;-71
2023/07/26 00:36:06;;;;;;;86.90;43.73;;;15.40;99.90;;;;;;6243758;23;20404;-71
2023/07/26 00:38:33;;;;;;;87.43;44.93;;;15.30;99.90;;;;;;6243809;23;20407;-72
2023/07/26 00:41:00;;;;;;;90.37;44.40;;;15.40;99.90;;;;;;6243438;23;20760;-72
2023/07/26 00:43:26;;;;;;;88.77;44.27;;;15.40;99.90;;;;;;6243404;23;20407;-72
2023/07/26 00:45:55;;;;;;;85.70;42.30;;;15.50;99.90;;;;;;6243717;23;20411;-72
2023/07/26 00:48:21;;;;;;;85.20;44.30;;;15.60;99.90;;;;;;6243590;23;20407;-72
2023/07/26 00:50:48;;;;;;;83.70;42.87;;;15.60;99.90;;;;;;6243311;23;20447;-72
2023/07/26 00:53:15;;;;;;;80.23;39.20;;;15.60;99.90;;;;;;6242995;23;20888;-72
2023/07/26 00:55:43;;;;;;;80.50;40.30;;;15.60;99.90;;;;;;6243699;23;20403;-73
2023/07/26 00:58:11;;;;;;;82.37;42.07;;;15.60;99.90;;;;;;6243421;23;20488;-72
2023/07/26 01:00:40;;;;;;;79.13;37.63;;;15.60;99.90;;;;;;6243444;23;20400;-73
2023/07/26 01:03:08;;;;;;;79.40;37.60;;;15.60;99.90;;;;;;6243371;23;20419;-72
2023/07/26 01:05:43;;;;;;;81.40;37.37;;;15.60;99.90;;;;;;6243235;23;20415;-72
2023/07/26 01:08:20;;;;;;;86.20;41.20;;;15.70;99.90;;;;;;6242894;23;20399;-73
2023/07/26 01:10:53;;;;;;;80.10;39.00;;;15.60;99.90;;;;;;6242745;23;20939;-72
2023/07/26 01:13:28;;;;;;;80.30;36.17;;;15.70;99.90;;;;;;6243328;23;20434;-73
2023/07/26 01:15:54;;;;;;;77.67;36.80;;;15.70;99.90;;;;;;6243349;23;20391;-73
2023/07/26 01:18:23;;;;;;;81.17;38.60;;;15.70;99.90;;;;;;6242959;23;20748;-73
2023/07/26 01:20:49;;;;;;;83.27;38.90;;;15.80;99.90;;;;;;6243231;23;20404;-73
2023/07/26 01:23:17;;;;;;;79.37;38.60;;;15.80;99.90;;;;;;6242601;23;20896;-73
2023/07/26 01:25:44;;;;;;;82.07;38.23;;;15.70;99.90;;;;;;6243040;23;20420;-74
2023/07/26 01:28:11;;;;;;;80.17;41.07;;;15.60;99.90;;;;;;6242818;23;20420;-73
2023/07/26 01:30:38;;;;;;;81.27;41.97;;;15.50;99.90;;;;;;6242947;23;20436;-72
2023/07/26 01:33:07;;;;;;;81.90;39.17;;;15.40;99.90;;;;;;6242513;23;20459;-72
2023/07/26 01:35:35;;;;;;;76.93;38.77;;;15.30;99.90;;;;;;6243248;23;20400;-72
2023/07/26 01:38:02;;;;;;;76.67;37.73;;;15.20;99.90;;;;;;6242333;23;20412;-72
2023/07/26 01:40:31;;;;;;;76.20;36.40;;;15.20;99.90;;;;;;6242984;23;20462;-72
2023/07/26 01:42:58;;;;;;;77.20;36.73;;;15.20;99.90;;;;;;6242939;23;20408;-72
2023/07/26 01:45:25;;;;;;;72.80;33.03;;;15.20;99.90;;;;;;6243313;23;20408;-72
2023/07/26 01:47:53;;;;;;;73.33;34.93;;;15.00;99.90;;;;;;6242380;23;20426;-72
2023/07/26 01:50:20;;;;;;;77.20;35.33;;;14.90;99.90;;;;;;6242936;23;20463;-72
2023/07/26 01:52:47;;;;;;;74.80;35.07;;;14.80;99.90;;;;;;6243207;23;20488;-74
2023/07/26 01:55:13;;;;;;;77.77;36.13;;;14.90;99.90;;;;;;6242902;23;20406;-74
2023/07/26 01:57:41;;;;;;;74.47;33.60;;;14.90;99.90;;;;;;6242346;23;20412;-73
2023/07/26 02:00:09;;;;;;;77.03;36.13;;;14.90;99.90;;;;;;6242464;23;20412;-72
2023/07/26 02:02:36;;;;;;;75.73;33.57;;;14.90;99.90;;;;;;6242282;23;20543;-73
2023/07/26 02:05:03;;;;;;;71.97;32.60;;;14.90;99.90;;;;;;6242696;23;20414;-72
2023/07/26 02:07:30;;;;;;;73.73;35.00;;;14.90;99.90;;;;;;6242321;23;20427;-72
2023/07/26 02:09:56;;;;;;;74.50;34.33;;;14.80;99.90;;;;;;6242742;23;20431;-72
2023/07/26 02:12:23;;;;;;;77.00;34.80;;;14.80;99.90;;;;;;6242486;23;20448;-72
2023/07/26 02:14:51;;;;;;;73.60;33.63;;;14.80;99.90;;;;;;6242617;23;20417;-72
2023/07/26 02:17:18;;;;;;;79.43;33.37;;;14.80;99.90;;;;;;6242428;23;20408;-73
2023/07/26 02:19:45;;;;;;;74.20;34.90;;;14.80;99.90;;;;;;6242418;23;20400;-72
2023/07/26 02:22:11;;;;;;;74.43;34.63;;;14.80;99.90;;;;;;6242881;23;20423;-72
2023/07/26 02:24:38;;;;;;;75.20;33.90;;;14.90;99.90;;;;;;6242599;23;20407;-72
2023/07/26 02:27:05;;;;;;;76.00;35.00;;;14.90;99.90;;;;;;6242579;23;20412;-72
2023/07/26 02:29:33;;;;;;;75.10;33.63;;;14.90;99.90;;;;;;6242053;23;20403;-72
2023/07/26 02:32:01;;;;;;;75.33;32.17;;;14.80;99.90;;;;;;6242345;23;20439;-72
2023/07/26 02:34:28;;;;;;;74.87;32.67;;;14.80;99.90;;;;;;6241686;22;20439;-72
2023/07/26 02:36:54;;;;;;;72.00;31.80;;;14.80;99.90;;;;;;6242058;23;20419;-72
2023/07/26 02:39:21;;;;;;;73.10;32.97;;;14.80;99.90;;;;;;6242001;23;20926;-72
2023/07/26 02:41:48;;;;;;;73.73;32.07;;;14.80;99.90;;;;;;6242105;23;20431;-72
2023/07/26 02:44:14;;;;;;;72.93;30.87;;;14.80;99.90;;;;;;6241794;23;20419;-72
2023/07/26 02:46:41;;;;;;;71.47;28.00;;;14.80;99.90;;;;;;6242547;23;20427;-72
2023/07/26 02:49:09;;;;;;;70.40;28.20;;;14.90;99.90;;;;;;6242423;23;20499;-72
2023/07/26 02:51:36;;;;;;;72.90;30.10;;;14.80;99.90;;;;;;6242228;23;20810;-72
2023/07/26 02:54:03;;;;;;;73.70;27.83;;;14.80;99.90;;;;;;6242316;23;20411;-71
2023/07/26 02:56:29;;;;;;;73.63;28.47;;;14.80;99.90;;;;;;6242318;23;20507;-71
2023/07/26 02:58:56;;;;;;;70.60;27.37;;;14.90;99.90;;;;;;6242343;23;20408;-72
2023/07/26 03:01:23;;;;;;;70.37;27.87;;;15.00;99.90;;;;;;6242047;23;20456;-72
2023/07/26 03:03:49;;;;;;;70.23;27.67;;;15.00;99.90;;;;;;6241571;23;20888;-71
2023/07/26 03:06:18;;;;;;;70.03;28.60;;;15.00;99.90;;;;;;6241781;23;20431;-72
2023/07/26 03:08:44;;;;;;;70.37;26.90;;;15.10;99.90;;;;;;6241996;23;20432;-72
2023/07/26 03:11:12;;;;;;;70.57;27.47;;;15.10;99.90;;;;;;6241771;23;20440;-72
2023/07/26 03:13:38;;;;;;;70.67;28.40;;;15.10;99.90;;;;;;6242279;23;20408;-72
2023/07/26 03:16:05;;;;;;;71.80;28.40;;;15.20;99.90;;;;;;6242637;23;20411;-73
2023/07/26 03:18:32;;;;;;;70.40;28.67;;;15.20;99.90;;;;;;6243076;23;20718;-72
2023/07/26 03:20:58;;;;;;;67.60;25.90;;;15.10;99.90;;;;;;6242608;23;20403;-73
2023/07/26 03:23:26;;;;;;;69.47;28.93;;;15.20;99.90;;;;;;6243011;23;20740;-73
2023/07/26 03:25:53;;;;;;;70.20;28.60;;;15.20;99.90;;;;;;6242930;23;20407;-72
2023/07/26 03:28:20;;;;;;;70.60;28.07;;;15.10;99.90;;;;;;6242568;23;20408;-73
2023/07/26 03:30:46;;;;;;;68.40;27.50;;;15.10;99.90;;;;;;6242692;23;20440;-73
2023/07/26 03:33:13;;;;;;;70.57;28.57;;;15.10;99.90;;;;;;6242549;23;20443;-73
2023/07/26 03:35:40;;;;;;;70.87;29.67;;;15.10;99.90;;;;;;6242801;23;20392;-72
2023/07/26 03:38:07;;;;;;;72.97;28.70;;;15.20;99.90;;;;;;6242862;23;20408;-72
2023/07/26 03:40:35;;;;;;;72.87;28.07;;;15.10;99.90;;;;;;6242726;23;20407;-72
2023/07/26 03:43:01;;;;;;;69.07;28.20;;;15.10;99.90;;;;;;6242445;23;20407;-72
2023/07/26 03:45:28;;;;;;;70.77;28.20;;;15.00;99.90;;;;;;6242538;23;20431;-72
2023/07/26 03:47:55;;;;;;;68.30;26.33;;;15.10;99.90;;;;;;6242857;23;20407;-73
2023/07/26 03:50:22;;;;;;;72.63;28.63;;;15.10;99.90;;;;;;6242771;23;20408;-73
2023/07/26 03:52:49;;;;;;;69.90;27.60;;;15.00;99.90;;;;;;6242725;23;20763;-73
2023/07/26 03:55:16;;;;;;;68.47;28.77;;;15.00;99.90;;;;;;6242675;23;20447;-72
2023/07/26 03:57:44;;;;;;;70.57;29.17;;;15.00;99.90;;;;;;6242710;23;20404;-72
2023/07/26 04:00:12;;;;;;;70.87;30.27;;;14.90;99.90;;;;;;6242847;23;20415;-72
2023/07/26 04:02:39;;;;;;;69.57;27.77;;;14.90;99.90;;;;;;6242332;23;20439;-72
2023/07/26 04:05:06;;;;;;;70.27;28.43;;;14.90;99.90;;;;;;6242728;23;20467;-72
2023/07/26 04:07:35;;;;;;;75.70;29.57;;;14.90;99.90;;;;;;6242610;23;20411;-72
2023/07/26 04:10:02;;;;;;;70.77;28.20;;;15.00;99.90;;;;;;6242258;23;20407;-73
2023/07/26 04:12:29;;;;;;;71.47;26.93;;;15.00;99.90;;;;;;6242479;23;20519;-72
2023/07/26 04:14:57;;;;;;;72.00;28.73;;;14.90;99.90;;;;;;6242576;23;20735;-73
2023/07/26 04:17:23;;;;;;;68.03;28.13;;;14.90;99.90;;;;;;6242278;23;20411;-72
2023/07/26 04:19:52;;;;;;;69.57;28.30;;;15.00;99.90;;;;;;6242340;23;20410;-73
2023/07/26 04:22:19;;;;;;;72.40;27.57;;;15.10;99.90;;;;;;6242491;23;20845;-73
2023/07/26 04:24:45;;;;;;;69.27;27.70;;;15.10;99.90;;;;;;6242586;23;20415;-73
2023/07/26 04:27:12;;;;;;;68.50;27.17;;;15.20;99.90;;;;;;6242513;23;20410;-72
2023/07/26 04:29:41;;;;;;;71.97;29.07;;;15.30;99.90;;;;;;6241996;23;20414;-73
2023/07/26 04:32:09;;;;;;;69.70;28.80;;;15.40;99.90;;;;;;6242435;23;20466;-73
2023/07/26 04:34:36;;;;;;;71.07;28.20;;;15.40;99.90;;;;;;6242073;23;20446;-73
2023/07/26 04:37:02;;;;;;;70.70;29.53;;;15.40;99.90;;;;;;6242186;23;20899;-73
2023/07/26 04:39:29;;;;;;;68.10;26.47;;;15.50;99.90;;;;;;6242522;23;20412;-73
2023/07/26 04:41:56;;;;;;;71.00;29.23;;;15.70;99.90;;;;;;6242448;23;20404;-74
2023/07/26 04:44:23;;;;;;;68.97;28.03;;;15.80;99.90;;;;;;6242528;23;20416;-74
2023/07/26 04:46:49;;;;;;;69.20;28.10;;;16.00;99.90;;;;;;6242394;23;20408;-73
2023/07/26 04:49:17;;;;;;;68.47;28.00;;;16.00;99.90;;;;;;6242527;23;20416;-72
2023/07/26 04:51:44;;;;;;;72.00;27.73;;;16.10;99.90;;;;;;6242263;23;20451;-73
2023/07/26 04:54:11;;;;;;;69.90;27.27;;;16.10;99.90;;;;;;6242456;23;20411;-73
2023/07/26 04:56:37;;;;;;;68.70;27.37;;;16.10;99.90;;;;;;6242677;23;20406;-73
2023/07/26 04:59:04;;;;;;;69.60;27.70;;;16.10;99.90;;;;;;6242534;23;20408;-73
2023/07/26 05:01:31;;;;;;;73.10;27.63;;;16.10;99.90;;;;;;6242169;23;20411;-73
2023/07/26 05:03:57;;;;;;;69.90;26.77;;;16.20;99.90;;;;;;6242367;23;20416;-74
2023/07/26 05:06:25;;;;;;;72.57;26.67;;;16.30;99.90;;;;;;6242363;23;20415;-73
2023/07/26 05:08:52;;;;;;;69.80;27.50;;;16.30;99.90;;;;;;6242284;23;20443;-73
2023/07/26 05:11:20;;;;;;;70.63;26.70;;;16.40;99.90;;;;;;6242013;23;20497;-74
2023/07/26 05:13:47;;;;;;;68.57;26.83;;;16.50;99.90;;;;;;6243615;23;20498;-74
2023/07/26 05:16:14;;;;;;;69.00;27.83;;;16.50;99.90;;;;;;6244066;23;20408;-74
2023/07/26 05:18:41;;;;;;;68.00;27.43;;;16.40;99.90;;;;;;6244228;23;20415;-74
2023/07/26 05:21:07;;;;;;;68.07;25.87;;;16.40;99.90;;;;;;6243863;23;20900;-75
2023/07/26 05:23:35;;;;;;;75.63;25.40;;;16.30;99.90;;;;;;6243967;23;20408;-74
2023/07/26 05:26:02;;;;;;;68.77;26.73;;;16.30;99.90;;;;;;6243801;23;20434;-75
2023/07/26 05:28:29;;;;;;;70.27;27.33;;;16.30;99.90;;;;;;6243995;23;20802;-75
2023/07/26 05:30:57;;;;;;;69.30;28.23;;;16.30;99.90;;;;;;6244236;23;20407;-75
2023/07/26 05:33:23;;;;;;;70.97;26.90;;;16.40;99.90;;;;;;6243795;23;20490;-74
2023/07/26 05:35:50;;;;;;;66.47;25.90;;;16.50;99.90;;;;;;6243832;23;20499;-75
2023/07/26 05:38:17;;;;;;;68.97;25.90;;;16.50;99.90;;;;;;6243673;23;20418;-75
2023/07/26 05:40:45;;;;;;;69.50;25.87;;;16.60;99.90;;;;;;6243840;23;20416;-75
2023/07/26 05:43:12;;;;;;;70.47;26.50;;;16.40;99.90;;;;;;6243963;23;20404;-75
2023/07/26 05:45:41;;;;;;;69.30;27.47;;;16.50;99.90;;;;;;6243836;23;20404;-75
2023/07/26 05:48:07;;;;;;;72.80;28.37;;;16.50;99.90;;;;;;6243826;23;20623;-75
2023/07/26 05:50:34;;;;;;;71.67;28.40;;;16.50;99.90;;;;;;6242573;23;20416;-75
2023/07/26 05:53:01;;;;;;;70.47;28.00;;;16.40;99.90;;;;;;6243650;23;20446;-76
2023/07/26 05:55:28;;;;;;;71.73;29.13;;;16.60;99.90;;;;;;6237133;23;20916;-74
2023/07/26 05:57:56;;;;;;;71.40;27.23;;;16.60;99.90;;;;;;6243840;23;20416;-75
2023/07/26 06:00:22;;;;;;;68.70;26.30;;;16.60;99.90;;;;;;6243340;23;20697;-74
2023/07/26 06:02:49;;;;;;;68.20;26.47;;;16.70;99.90;;;;;;6243942;23;20414;-75
2023/07/26 06:05:16;;;;;;;69.00;27.10;;;16.70;99.90;;;;;;6243947;23;20416;-74
2023/07/26 06:07:42;;;;;;;71.63;27.07;;;16.80;99.90;;;;;;6243650;23;20466;-73
2023/07/26 06:10:09;;;;;;;68.40;26.97;;;16.80;99.90;;;;;;6243756;23;20408;-75
2023/07/26 06:12:36;;;;;;;71.80;26.30;;;17.10;99.90;;;;;;6243667;23;20440;-74
2023/07/26 06:15:05;;;;;;;69.07;26.60;;;17.30;99.90;;;;;;6243671;23;20901;-74
2023/07/26 06:17:33;;;;;;;68.27;26.50;;;17.70;99.90;;;;;;6243805;23;20503;-75
2023/07/26 06:20:00;;;;;;;72.90;27.13;;;18.20;99.90;;;;;;6243593;23;20508;-74
2023/07/26 06:22:26;;;;;;;70.13;25.90;;;18.40;99.90;;;;;;6243505;23;20411;-74
2023/07/26 06:24:53;;;;;;;70.73;27.47;;;18.80;99.90;;;;;;6243361;23;20407;-74
2023/07/26 06:27:22;;;;;;;70.47;27.60;;;19.20;99.90;;;;;;6243182;23;20552;-74
2023/07/26 06:29:49;;;;;;;67.20;26.40;;;19.50;99.90;;;;;;6243893;23;20404;-76
2023/07/26 06:32:17;;;;;;;74.73;27.50;;;19.60;99.90;;;;;;6243375;23;20756;-75
2023/07/26 06:34:45;;;;;;;67.77;27.07;;;19.80;99.90;;;;;;6242935;22;20441;-74
2023/07/26 06:37:11;;;;;;;67.70;27.30;;;20.00;99.90;;;;;;6242997;23;20408;-75
2023/07/26 06:39:38;;;;;;;68.20;25.40;;;20.40;99.90;;;;;;6243456;23;20404;-75
2023/07/26 06:42:05;;;;;;;70.93;26.63;;;20.40;99.90;;;;;;6243693;23;20404;-75
2023/07/26 06:44:32;;;;;;;69.87;26.10;;;20.40;99.90;;;;;;6243815;23;20403;-73
2023/07/26 06:46:59;;;;;;;66.80;26.30;;;20.50;99.90;;;;;;6243514;23;20407;-74
2023/07/26 06:49:27;;;;;;;73.70;26.87;;;20.50;99.90;;;;;;6244065;23;20419;-73
2023/07/26 06:51:53;;;;;;;68.37;26.20;;;20.50;99.90;;;;;;6243752;23;20446;-74
2023/07/26 06:54:20;;;;;;;68.53;24.60;;;20.50;99.90;;;;;;6243564;23;20411;-74
2023/07/26 06:56:47;;;;;;;69.70;25.40;;;20.50;99.90;;;;;;6243371;23;20407;-75
2023/07/26 06:59:15;;;;;;;66.60;25.70;;;20.40;99.90;;;;;;6243437;23;20408;-74
2023/07/26 07:01:42;;;;;;;65.90;25.20;;;20.30;99.90;;;;;;6243093;23;20904;-73
2023/07/26 07:04:09;;;;;;;68.30;24.90;;;20.30;99.90;;;;;;6243527;23;20494;-74
2023/07/26 07:06:37;;;;;;;66.73;25.60;;;20.60;99.90;;;;;;6242855;23;20415;-74
2023/07/26 07:09:05;;;;;;;68.10;25.30;;;20.60;99.90;;;;;;6243179;23;20729;-72
2023/07/26 07:11:31;;;;;;;68.27;26.20;;;20.10;99.90;;;;;;6243117;23;20731;-74
2023/07/26 07:13:58;;;;;;;66.97;25.90;;;19.70;99.90;;;;;;6243042;23;20443;-73
2023/07/26 07:16:25;;;;;;;68.17;26.87;;;19.20;99.90;;;;;;6242696;23;20955;-73
2023/07/26 07:18:52;;;;;;;67.80;26.37;;;18.70;99.90;;;;;;6242863;23;20408;-73
2023/07/26 07:21:18;;;;;;;70.63;28.90;;;18.30;99.90;;;;;;6243139;23;20423;-73
2023/07/26 07:23:47;;;;;;;72.27;28.37;;;17.80;99.90;;;;;;6243150;23;20705;-73
2023/07/26 07:26:14;;;;;;;68.20;26.37;;;17.50;99.90;;;;;;6243116;23;20415;-72
2023/07/26 07:28:41;;;;;;;70.23;26.83;;;17.20;99.90;;;;;;6243095;23;20702;-74
2023/07/26 07:31:07;;;;;;;68.07;25.30;;;17.10;99.90;;;;;;6243267;23;20400;-72
2023/07/26 07:33:34;;;;;;;79.67;27.30;;;17.00;99.90;;;;;;6242615;22;20455;-73
2023/07/26 07:36:01;;;;;;;72.70;27.40;;;17.00;99.90;;;;;;6242275;23;20907;-73
2023/07/26 07:38:28;;;;;;;71.83;27.77;;;16.90;99.90;;;;;;6242488;23;20971;-75
2023/07/26 07:40:56;;;;;;;77.17;31.77;;;17.10;99.90;;;;;;6243103;23;20503;-72
2023/07/26 07:43:23;;;;;;;72.83;33.40;;;16.90;99.90;;;;;;6242955;23;20708;-72
2023/07/26 07:45:49;;;;;;;72.03;36.70;;;16.70;99.90;;;;;;6242646;23;20665;-71
2023/07/26 07:48:16;;;;;;;74.70;36.17;;;16.70;99.90;;;;;;6243312;23;20412;-71
2023/07/26 07:50:43;;;;;;;79.50;36.57;;;16.50;99.90;;;;;;6243386;23;20412;-72
2023/07/26 07:53:11;;;;;;;76.93;36.60;;;16.30;99.90;;;;;;6243028;23;20443;-72
2023/07/26 07:55:38;;;;;;;74.10;36.53;;;16.40;99.90;;;;;;6243086;23;20424;-71
2023/07/26 07:58:07;;;;;;;74.27;35.80;;;16.60;99.90;;;;;;6243044;23;20810;-72
2023/07/26 08:00:34;;;;;;;71.00;35.30;;;16.80;99.90;;;;;;6242386;23;20408;-72
2023/07/26 08:03:03;;;;;;;73.43;35.30;;;16.80;99.90;;;;;;6242966;23;20400;-74
2023/07/26 08:05:32;;;;;;;72.20;34.73;;;17.00;99.90;;;;;;6242977;23;20487;-72
2023/07/26 08:07:59;;;;;;;72.47;33.77;;;16.80;99.90;;;;;;6242916;23;20407;-72
2023/07/26 08:10:27;;;;;;;72.00;33.10;;;16.70;99.90;;;;;;6242736;23;20408;-73
2023/07/26 08:12:53;;;;;;;71.97;34.43;;;16.70;99.90;;;;;;6242673;23;20778;-74
2023/07/26 08:15:21;;;;;;;71.10;32.70;;;16.60;99.90;;;;;;6242891;23;20416;-73
2023/07/26 08:17:48;;;;;;;69.33;31.47;;;16.50;99.90;;;;;;6243053;23;20759;-73
2023/07/26 08:20:15;;;;;;;71.03;30.70;;;16.40;99.90;;;;;;6242695;23;20411;-73
2023/07/26 08:22:41;;;;;;;71.37;29.17;;;16.50;99.90;;;;;;6242804;23;20410;-74
2023/07/26 08:25:09;;;;;;;73.23;28.60;;;16.50;99.90;;;;;;6242867;23;20888;-73
2023/07/26 08:27:36;;;;;;;72.00;28.13;;;16.60;99.90;;;;;;6242904;23;20404;-73
2023/07/26 08:30:03;;;;;;;72.17;28.40;;;16.80;99.90;;;;;;6242893;23;20450;-75
2023/07/26 08:32:31;;;;;;;71.80;27.17;;;16.90;99.90;;;;;;6242626;23;20954;-74
2023/07/26 08:34:58;;;;;;;66.60;24.57;;;17.00;99.90;;;;;;6242227;23;20444;-74
2023/07/26 08:37:25;;;;;;;73.90;25.77;;;17.10;99.90;;;;;;6242246;23;20934;-74
2023/07/26 08:39:51;;;;;;;68.57;26.50;;;17.00;99.90;;;;;;6242692;23;20415;-74
2023/07/26 08:42:18;;;;;;;69.30;25.20;;;17.10;99.90;;;;;;6242507;23;20399;-74
2023/07/26 08:44:50;;;;;;;66.70;24.87;;;16.90;99.90;;;;;;6242826;23;20412;-73
2023/07/26 08:48:24;;;;;;;73.20;27.60;;;17.00;99.90;;;;;;6242871;23;20396;-72
2023/07/26 08:50:52;;;;;;;70.47;26.90;;;16.90;99.90;;;;;;6213477;23;20913;-77
2023/07/26 08:53:20;;;;;;;66.10;25.20;;;17.10;99.90;;;;;;6243678;23;20443;-79
2023/07/26 08:55:49;;;;;;;68.10;25.73;;;17.20;99.90;;;;;;6244578;23;20408;-79
2023/07/26 08:58:16;;;;;;;65.40;24.67;;;17.40;99.90;;;;;;6244886;23;20415;-79
2023/07/26 09:00:42;;;;;;;66.70;24.20;;;17.50;99.90;;;;;;6244501;23;20411;-78
2023/07/26 09:03:11;;;;;;;68.03;23.80;;;17.50;99.90;;;;;;6244428;23;20406;-84
2023/07/26 09:05:38;;;;;;;65.40;22.87;;;17.60;99.90;;;;;;6244306;23;20408;-79
2023/07/26 09:08:06;;;;;;;64.30;22.20;;;17.80;99.90;;;;;;6243910;23;20416;-74
2023/07/26 09:10:33;;;;;;;64.97;22.40;;;18.00;99.90;;;;;;6243597;23;20656;-73
2023/07/26 09:13:09;;;;;;;64.97;21.80;;;18.20;99.90;;;;;;6243861;23;20448;-74
2023/07/26 09:15:37;;;;;;;63.80;22.33;;;18.60;99.90;;;;;;6243764;23;20427;-74
2023/07/26 09:18:04;;;;;;;66.37;23.00;;;18.90;99.90;;;;;;6243524;23;20427;-75
2023/07/26 09:20:32;;;;;;;65.50;21.33;;;19.20;99.90;;;;;;6243581;23;20446;-74
2023/07/26 09:23:00;;;;;;;64.27;22.63;;;19.30;99.90;;;;;;6243718;23;20419;-74
2023/07/26 09:25:37;;;;;;;63.67;21.77;;;19.60;99.90;;;;;;6243763;23;20452;-75
2023/07/26 09:28:04;;;;;;;63.90;22.23;;;19.70;99.90;;;;;;6244342;23;20448;-84
2023/07/26 09:30:36;;;;;;;64.27;21.83;;;19.60;99.90;;;;;;6244138;23;20718;-83
2023/07/26 09:33:03;;;;;;;63.40;21.27;;;19.70;99.90;;;;;;6243176;22;20444;-83
2023/07/26 09:35:31;;;;;;;64.40;20.53;;;19.60;99.90;;;;;;6244519;23;20392;-81
2023/07/26 09:37:58;;;;;;;64.67;22.40;;;19.60;99.90;;;;;;6244430;23;20408;-81
2023/07/26 09:40:32;;;;;;;64.03;22.00;;;19.60;99.90;;;;;;6243883;23;20422;-82
2023/07/26 09:43:00;;;;;;;63.67;21.77;;;19.60;99.90;;;;;;6244422;23;20404;-81
2023/07/26 09:45:27;;;;;;;64.33;23.60;;;19.60;99.90;;;;;;6244341;23;20800;-81
2023/07/26 09:48:06;;;;;;;64.37;22.37;;;19.60;99.90;;;;;;6244383;23;20454;-80
2023/07/26 09:50:33;;;;;;;64.40;21.87;;;19.50;99.90;;;;;;6243900;23;20917;-82
2023/07/26 09:53:01;;;;;;;66.57;24.30;;;19.20;99.90;;;;;;6243912;23;21041;-81
2023/07/26 09:55:29;;;;;;;67.10;28.17;;;18.90;99.90;;;;;;6244240;23;20408;-80
2023/07/26 09:57:57;;;;;;;65.80;26.40;;;18.30;99.90;;;;;;6244005;23;20404;-77
2023/07/26 10:00:28;;;;;;;68.03;27.63;;;17.80;99.90;;;;;;6243349;23;20754;-79
2023/07/26 10:02:57;;;;;;;66.60;26.57;;;17.60;99.90;;;;;;6244006;23;20395;-75
2023/07/26 10:05:26;;;;;;;66.27;26.30;;;17.50;99.90;;;;;;6243314;23;20415;-76
2023/07/26 10:07:53;;;;;;;65.23;24.40;;;17.70;99.90;;;;;;6242566;23;20715;-78
2023/07/26 10:10:21;;;;;;;63.90;21.77;;;18.10;99.90;;;;;;6243507;23;20474;-78
2023/07/26 10:12:50;;;;;;;63.40;20.80;;;18.50;99.90;;;;;;6243300;23;20474;-76
2023/07/26 10:15:17;;;;;;;64.60;22.00;;;19.20;99.90;;;;;;6243804;23;20404;-78
2023/07/26 10:17:48;;;;;;;64.87;23.00;;;20.10;99.90;;;;;;6244040;23;20688;-80
2023/07/26 10:20:15;;;;;;;63.27;22.17;;;21.10;99.90;;;;;;6245367;23;20388;-81
2023/07/26 10:22:43;;;;;;;63.20;22.53;;;22.00;99.90;;;;;;6244064;23;20722;-82
2023/07/26 10:25:11;;;;;;;64.20;21.90;;;22.70;99.90;;;;;;6245337;23;20741;-81
2023/07/26 10:27:38;;;;;;;64.80;22.93;;;22.60;99.90;;;;;;6245802;23;20470;-82
2023/07/26 10:30:06;;;;;;;63.67;22.67;;;21.70;99.90;;;;;;6245349;23;20416;-80
2023/07/26 10:32:33;;;;;;;67.40;23.70;;;21.20;99.90;;;;;;6245681;23;20408;-81
2023/07/26 10:35:01;;;;;;;64.70;24.10;;;20.70;99.90;;;;;;6244411;22;20451;-80
2023/07/26 10:37:33;;;;;;;64.03;22.67;;;20.30;99.90;;;;;;6244917;23;20415;-80
2023/07/26 10:40:00;;;;;;;65.90;21.97;;;19.70;99.90;;;;;;6244616;23;20414;-79
2023/07/26 10:42:28;;;;;;;63.97;21.20;;;19.60;99.90;;;;;;6256903;23;20439;-77
2023/07/26 10:44:56;;;;;;;64.37;21.50;;;19.80;99.90;;;;;;6260216;23;20415;-79
2023/07/26 10:47:23;;;;;;;64.60;21.57;;;20.10;99.90;;;;;;6259345;23;20400;-79
2023/07/26 10:49:50;;;;;;;64.57;22.27;;;20.60;99.90;;;;;;6261811;23;20499;-80
2023/07/26 10:52:18;;;;;;;65.10;22.00;;;21.00;99.90;;;;;;6261365;23;20414;-78
2023/07/26 10:54:48;;;;;;;63.50;21.70;;;20.90;99.90;;;;;;6266907;23;20554;-79
2023/07/26 10:57:20;;;;;;;63.67;22.27;;;21.50;99.90;;;;;;6240867;22;20428;-81
2023/07/26 10:59:58;;;;;;;64.03;22.63;;;21.70;99.80;;;;;;6243932;23;20506;-80
2023/07/26 11:02:35;;;;;;;63.50;22.00;;;22.20;98.70;;;;;;6243938;23;20438;-78
2023/07/26 11:05:03;;;;;;;65.83;22.67;;;23.40;96.20;;;;;;6244086;23;20388;-81
2023/07/26 11:07:53;;;;;;;63.73;23.33;;;24.30;95.00;;;;;;6244100;23;20466;-81
2023/07/26 11:10:21;;;;;;;63.67;23.30;;;24.40;93.50;;;;;;6243748;23;20396;-80
2023/07/26 11:13:03;;;;;;;64.50;23.50;;;24.90;92.20;;;;;;6243714;23;20519;-78
2023/07/26 11:15:31;;;;;;;68.43;23.70;;;25.40;90.70;;;;;;6243740;23;20381;-78
2023/07/26 11:17:58;;;;;;;63.70;24.60;;;26.20;89.10;;;;;;6243056;23;20403;-78
2023/07/26 11:20:25;;;;;;;64.70;23.67;;;27.20;82.40;;;;;;6241497;23;20416;-79
2023/07/26 11:22:53;;;;;;;67.17;27.40;;;26.20;82.10;;;;;;6243514;23;20412;-78
2023/07/26 11:25:20;;;;;;;64.07;23.70;;;25.70;83.60;;;;;;6243278;23;20404;-73
2023/07/26 11:27:48;;;;;;;65.57;23.30;;;25.90;83.40;;;;;;6242800;23;20450;-73
2023/07/26 11:30:15;;;;;;;63.67;23.80;;;25.90;83.40;;;;;;6242761;23;20411;-74
2023/07/26 11:32:45;;;;;;;63.00;23.40;;;25.90;84.10;;;;;;6242494;23;20416;-74
2023/07/26 11:35:12;;;;;;;62.70;22.70;;;25.70;83.00;;;;;;6242743;23;20931;-75
2023/07/26 11:37:39;;;;;;;64.10;23.07;;;25.60;84.50;;;;;;6243088;23;20415;-74
2023/07/26 11:40:09;;;;;;;63.97;23.00;;;25.50;83.70;;;;;;6243301;23;20435;-75
2023/07/26 11:42:36;;;;;;;63.97;23.60;;;25.40;82.80;;;;;;6243030;23;20400;-74
2023/07/26 11:45:04;;;;;;;74.90;23.90;;;25.10;83.30;;;;;;6242744;23;20416;-75
2023/07/26 11:47:34;;;;;;;63.30;23.70;;;25.30;83.80;;;;;;6242564;23;20408;-74
2023/07/26 11:50:02;;;;;;;62.77;23.40;;;26.20;79.90;;;;;;6242715;23;20466;-76
2023/07/26 11:52:29;;;;;;;64.80;23.63;;;26.50;79.30;;;;;;6242879;23;20447;-74
2023/07/26 11:54:57;;;;;;;63.53;23.70;;;27.80;77.00;;;;;;6242806;23;20472;-76
2023/07/26 11:57:26;;;;;;;63.50;24.57;;;27.80;74.90;;;;;;6242717;23;20412;-76
2023/07/26 11:59:55;;;;;;;65.43;23.40;;;27.20;75.80;;;;;;6242606;23;20404;-75
2023/07/26 12:02:22;;;;;;;63.37;22.70;;;26.10;76.60;;;;;;6242306;23;20412;-76
2023/07/26 12:05:14;;;;;;;65.50;23.37;;;25.50;80.10;;;;;;6242862;23;20407;-75
2023/07/26 12:07:44;;;;;;;64.57;23.00;;;25.50;80.80;;;;;;6242496;23;20864;-74
2023/07/26 12:10:11;;;;;;;64.20;23.60;;;25.30;80.10;;;;;;6243095;23;20408;-77
2023/07/26 12:12:43;;;;;;;63.77;22.37;;;25.20;80.80;;;;;;6242998;23;20740;-77
2023/07/26 12:15:10;;;;;;;67.90;23.77;;;24.70;81.70;;;;;;6242610;23;20474;-77
2023/07/26 12:17:37;;;;;;;65.43;23.83;;;24.30;84.00;;;;;;6243144;23;20419;-80
2023/07/26 12:20:06;;;;;;;64.00;23.37;;;24.80;83.20;;;;;;6243067;23;20418;-75
2023/07/26 12:22:33;;;;;;;64.77;24.10;;;25.40;78.30;;;;;;6243062;23;20431;-76
2023/07/26 12:25:02;;;;;;;64.30;24.83;;;26.50;74.80;;;;;;6244614;23;20423;-76
2023/07/26 12:27:33;;;;;;;64.40;24.93;;;26.30;71.80;;;;;;6245123;23;20408;-76
2023/07/26 12:30:02;;;;;;;65.87;24.03;;;26.50;74.40;;;;;;6243212;22;21174;-75
2023/07/26 12:32:28;;;;;;;65.80;25.17;;;26.70;72.10;;;;;;6244649;23;20419;-75